sensor_id;sensor_type;location;lat;lon;timestamp;P1;durP1;ratioP1;P2;durP2;ratioP2
52322;SDS011;38263;52.920;6.238;2023-12-20T00:01:28;10.95;;;2.33;;
52322;SDS011;38263;52.920;6.238;2023-12-20T00:03:54;15.13;;;2.88;;
52322;SDS011;38263;52.920;6.238;2023-12-20T00:06:20;13.13;;;2.90;;
52322;SDS011;38263;52.920;6.238;2023-12-20T00:08:46;10.20;;;2.25;;
52322;SDS011;38263;52.920;6.238;2023-12-20T00:11:12;15.65;;;3.17;;
52322;SDS011;38263;52.920;6.238;2023-12-20T00:13:38;10.65;;;2.67;;
52322;SDS011;38263;52.920;6.238;2023-12-20T00:16:04;12.85;;;3.78;;
52322;SDS011;38263;52.920;6.238;2023-12-20T00:18:30;16.67;;;3.13;;
52322;SDS011;38263;52.920;6.238;2023-12-20T00:20:56;8.13;;;3.05;;
52322;SDS011;38263;52.920;6.238;2023-12-20T00:23:22;13.75;;;2.67;;
52322;SDS011;38263;52.920;6.238;2023-12-20T00:25:48;14.85;;;3.90;;
52322;SDS011;38263;52.920;6.238;2023-12-20T00:28:14;13.50;;;2.70;;
52322;SDS011;38263;52.920;6.238;2023-12-20T00:30:40;19.98;;;3.38;;
52322;SDS011;38263;52.920;6.238;2023-12-20T00:33:06;18.00;;;3.25;;
52322;SDS011;38263;52.920;6.238;2023-12-20T00:35:32;14.70;;;3.28;;
52322;SDS011;38263;52.920;6.238;2023-12-20T00:37:58;15.25;;;2.80;;
52322;SDS011;38263;52.920;6.238;2023-12-20T00:40:25;15.55;;;3.45;;
52322;SDS011;38263;52.920;6.238;2023-12-20T00:42:51;18.17;;;3.33;;
52322;SDS011;38263;52.920;6.238;2023-12-20T00:45:17;11.80;;;2.53;;
52322;SDS011;38263;52.920;6.238;2023-12-20T00:47:42;14.02;;;2.80;;
52322;SDS011;38263;52.920;6.238;2023-12-20T00:50:09;14.27;;;3.17;;
52322;SDS011;38263;52.920;6.238;2023-12-20T00:52:34;12.13;;;3.03;;
52322;SDS011;38263;52.920;6.238;2023-12-20T00:55:00;12.80;;;2.90;;
52322;SDS011;38263;52.920;6.238;2023-12-20T00:57:26;18.23;;;3.75;;
52322;SDS011;38263;52.920;6.238;2023-12-20T00:59:52;15.00;;;3.53;;
52322;SDS011;38263;52.920;6.238;2023-12-20T01:02:18;11.48;;;3.20;;
52322;SDS011;38263;52.920;6.238;2023-12-20T01:04:44;16.35;;;3.10;;
52322;SDS011;38263;52.920;6.238;2023-12-20T01:07:10;14.68;;;2.90;;
52322;SDS011;38263;52.920;6.238;2023-12-20T01:09:36;14.63;;;2.75;;
52322;SDS011;38263;52.920;6.238;2023-12-20T01:12:02;18.67;;;3.58;;
52322;SDS011;38263;52.920;6.238;2023-12-20T01:14:28;13.80;;;3.75;;
52322;SDS011;38263;52.920;6.238;2023-12-20T01:16:54;21.60;;;3.22;;
52322;SDS011;38263;52.920;6.238;2023-12-20T01:19:20;15.07;;;3.28;;
52322;SDS011;38263;52.920;6.238;2023-12-20T01:21:46;14.48;;;3.53;;
52322;SDS011;38263;52.920;6.238;2023-12-20T01:24:12;13.45;;;2.45;;
52322;SDS011;38263;52.920;6.238;2023-12-20T01:26:38;18.83;;;3.47;;
52322;SDS011;38263;52.920;6.238;2023-12-20T01:29:04;15.02;;;2.58;;
52322;SDS011;38263;52.920;6.238;2023-12-20T01:31:30;13.30;;;3.08;;
52322;SDS011;38263;52.920;6.238;2023-12-20T01:33:56;9.68;;;3.10;;
52322;SDS011;38263;52.920;6.238;2023-12-20T01:36:22;15.13;;;3.05;;
52322;SDS011;38263;52.920;6.238;2023-12-20T01:38:48;14.30;;;2.78;;
52322;SDS011;38263;52.920;6.238;2023-12-20T01:41:14;17.05;;;3.10;;
52322;SDS011;38263;52.920;6.238;2023-12-20T01:43:40;11.10;;;3.03;;
52322;SDS011;38263;52.920;6.238;2023-12-20T01:46:06;15.57;;;2.60;;
52322;SDS011;38263;52.920;6.238;2023-12-20T01:48:32;15.52;;;3.40;;
52322;SDS011;38263;52.920;6.238;2023-12-20T01:50:59;16.30;;;3.22;;
52322;SDS011;38263;52.920;6.238;2023-12-20T01:53:25;17.00;;;3.47;;
52322;SDS011;38263;52.920;6.238;2023-12-20T01:55:54;12.77;;;3.63;;
52322;SDS011;38263;52.920;6.238;2023-12-20T01:58:20;16.77;;;3.67;;
52322;SDS011;38263;52.920;6.238;2023-12-20T02:00:47;17.25;;;2.90;;
52322;SDS011;38263;52.920;6.238;2023-12-20T02:03:13;17.35;;;3.20;;
52322;SDS011;38263;52.920;6.238;2023-12-20T02:05:39;17.23;;;3.60;;
52322;SDS011;38263;52.920;6.238;2023-12-20T02:08:06;21.70;;;3.53;;
52322;SDS011;38263;52.920;6.238;2023-12-20T02:10:32;17.38;;;3.53;;
52322;SDS011;38263;52.920;6.238;2023-12-20T02:12:58;15.32;;;3.20;;
52322;SDS011;38263;52.920;6.238;2023-12-20T02:15:24;16.73;;;3.40;;
52322;SDS011;38263;52.920;6.238;2023-12-20T02:17:50;20.13;;;4.15;;
52322;SDS011;38263;52.920;6.238;2023-12-20T02:20:16;13.98;;;3.10;;
52322;SDS011;38263;52.920;6.238;2023-12-20T02:22:42;17.10;;;3.55;;
52322;SDS011;38263;52.920;6.238;2023-12-20T02:25:08;26.80;;;4.32;;
52322;SDS011;38263;52.920;6.238;2023-12-20T02:27:34;16.92;;;2.97;;
52322;SDS011;38263;52.920;6.238;2023-12-20T02:30:01;12.30;;;3.50;;
52322;SDS011;38263;52.920;6.238;2023-12-20T02:32:28;21.65;;;3.60;;
52322;SDS011;38263;52.920;6.238;2023-12-20T02:34:54;17.73;;;3.33;;
52322;SDS011;38263;52.920;6.238;2023-12-20T02:37:21;23.23;;;3.85;;
52322;SDS011;38263;52.920;6.238;2023-12-20T02:39:47;18.15;;;3.40;;
52322;SDS011;38263;52.920;6.238;2023-12-20T02:42:13;18.60;;;3.58;;
52322;SDS011;38263;52.920;6.238;2023-12-20T02:44:39;17.98;;;3.80;;
52322;SDS011;38263;52.920;6.238;2023-12-20T02:47:05;15.70;;;4.90;;
52322;SDS011;38263;52.920;6.238;2023-12-20T02:49:31;26.98;;;4.97;;
52322;SDS011;38263;52.920;6.238;2023-12-20T02:51:57;23.40;;;4.60;;
52322;SDS011;38263;52.920;6.238;2023-12-20T02:54:23;22.00;;;4.18;;
52322;SDS011;38263;52.920;6.238;2023-12-20T02:56:49;19.88;;;3.70;;
52322;SDS011;38263;52.920;6.238;2023-12-20T02:59:15;19.38;;;3.70;;
52322;SDS011;38263;52.920;6.238;2023-12-20T03:01:41;18.98;;;3.83;;
52322;SDS011;38263;52.920;6.238;2023-12-20T03:04:08;22.98;;;5.38;;
52322;SDS011;38263;52.920;6.238;2023-12-20T03:06:34;17.90;;;4.28;;
52322;SDS011;38263;52.920;6.238;2023-12-20T03:09:00;18.15;;;3.80;;
52322;SDS011;38263;52.920;6.238;2023-12-20T03:11:29;24.48;;;4.00;;
52322;SDS011;38263;52.920;6.238;2023-12-20T03:13:55;18.08;;;3.85;;
52322;SDS011;38263;52.920;6.238;2023-12-20T03:16:21;14.98;;;4.55;;
52322;SDS011;38263;52.920;6.238;2023-12-20T03:18:47;15.65;;;4.63;;
52322;SDS011;38263;52.920;6.238;2023-12-20T03:21:13;20.52;;;4.43;;
52322;SDS011;38263;52.920;6.238;2023-12-20T03:23:39;29.55;;;4.70;;
52322;SDS011;38263;52.920;6.238;2023-12-20T03:26:09;19.15;;;5.00;;
52322;SDS011;38263;52.920;6.238;2023-12-20T03:28:38;16.70;;;3.47;;
52322;SDS011;38263;52.920;6.238;2023-12-20T03:31:04;22.80;;;4.13;;
52322;SDS011;38263;52.920;6.238;2023-12-20T03:33:30;25.50;;;6.03;;
52322;SDS011;38263;52.920;6.238;2023-12-20T03:35:56;25.52;;;5.47;;
52322;SDS011;38263;52.920;6.238;2023-12-20T03:38:22;24.63;;;6.50;;
52322;SDS011;38263;52.920;6.238;2023-12-20T03:40:51;26.33;;;5.05;;
52322;SDS011;38263;52.920;6.238;2023-12-20T03:43:17;17.08;;;4.20;;
52322;SDS011;38263;52.920;6.238;2023-12-20T03:45:43;24.20;;;4.45;;
52322;SDS011;38263;52.920;6.238;2023-12-20T03:48:09;22.55;;;4.15;;
52322;SDS011;38263;52.920;6.238;2023-12-20T03:50:35;24.92;;;4.47;;
52322;SDS011;38263;52.920;6.238;2023-12-20T03:53:01;23.92;;;4.28;;
52322;SDS011;38263;52.920;6.238;2023-12-20T03:55:28;28.05;;;4.68;;
52322;SDS011;38263;52.920;6.238;2023-12-20T03:57:54;21.90;;;4.15;;
52322;SDS011;38263;52.920;6.238;2023-12-20T04:00:20;25.35;;;4.30;;
52322;SDS011;38263;52.920;6.238;2023-12-20T04:02:46;18.42;;;4.80;;
52322;SDS011;38263;52.920;6.238;2023-12-20T04:05:12;25.60;;;4.07;;
52322;SDS011;38263;52.920;6.238;2023-12-20T04:07:38;23.42;;;4.63;;
52322;SDS011;38263;52.920;6.238;2023-12-20T04:10:05;23.52;;;3.95;;
52322;SDS011;38263;52.920;6.238;2023-12-20T04:12:31;21.70;;;4.22;;
52322;SDS011;38263;52.920;6.238;2023-12-20T04:14:57;28.48;;;5.03;;
52322;SDS011;38263;52.920;6.238;2023-12-20T04:17:23;21.33;;;4.10;;
52322;SDS011;38263;52.920;6.238;2023-12-20T04:19:49;20.55;;;4.78;;
52322;SDS011;38263;52.920;6.238;2023-12-20T04:22:16;27.35;;;4.35;;
52322;SDS011;38263;52.920;6.238;2023-12-20T04:24:42;25.10;;;5.45;;
52322;SDS011;38263;52.920;6.238;2023-12-20T04:27:08;19.85;;;4.72;;
52322;SDS011;38263;52.920;6.238;2023-12-20T04:29:34;27.50;;;5.07;;
52322;SDS011;38263;52.920;6.238;2023-12-20T04:32:00;23.30;;;4.18;;
52322;SDS011;38263;52.920;6.238;2023-12-20T04:34:26;24.63;;;5.28;;
52322;SDS011;38263;52.920;6.238;2023-12-20T04:36:53;19.27;;;3.92;;
52322;SDS011;38263;52.920;6.238;2023-12-20T04:39:19;24.85;;;5.00;;
52322;SDS011;38263;52.920;6.238;2023-12-20T04:41:45;21.92;;;5.07;;
52322;SDS011;38263;52.920;6.238;2023-12-20T04:44:12;20.38;;;5.45;;
52322;SDS011;38263;52.920;6.238;2023-12-20T04:46:38;27.80;;;4.93;;
52322;SDS011;38263;52.920;6.238;2023-12-20T04:49:04;22.58;;;4.28;;
52322;SDS011;38263;52.920;6.238;2023-12-20T04:51:33;24.60;;;4.70;;
52322;SDS011;38263;52.920;6.238;2023-12-20T04:53:59;21.98;;;5.38;;
52322;SDS011;38263;52.920;6.238;2023-12-20T04:56:25;25.30;;;4.10;;
52322;SDS011;38263;52.920;6.238;2023-12-20T04:58:51;19.33;;;4.60;;
52322;SDS011;38263;52.920;6.238;2023-12-20T05:01:17;20.15;;;4.20;;
52322;SDS011;38263;52.920;6.238;2023-12-20T05:03:43;22.73;;;4.03;;
52322;SDS011;38263;52.920;6.238;2023-12-20T05:06:09;22.92;;;4.55;;
52322;SDS011;38263;52.920;6.238;2023-12-20T05:08:36;17.17;;;3.85;;
52322;SDS011;38263;52.920;6.238;2023-12-20T05:11:02;22.70;;;4.35;;
52322;SDS011;38263;52.920;6.238;2023-12-20T05:13:28;24.88;;;4.70;;
52322;SDS011;38263;52.920;6.238;2023-12-20T05:15:54;19.27;;;4.15;;
52322;SDS011;38263;52.920;6.238;2023-12-20T05:18:20;25.08;;;5.13;;
52322;SDS011;38263;52.920;6.238;2023-12-20T05:20:47;22.75;;;4.30;;
52322;SDS011;38263;52.920;6.238;2023-12-20T05:23:13;30.42;;;6.88;;
52322;SDS011;38263;52.920;6.238;2023-12-20T05:25:39;17.13;;;4.00;;
52322;SDS011;38263;52.920;6.238;2023-12-20T05:28:05;18.58;;;4.32;;
52322;SDS011;38263;52.920;6.238;2023-12-20T05:30:31;21.98;;;4.50;;
52322;SDS011;38263;52.920;6.238;2023-12-20T05:32:57;21.17;;;4.50;;
52322;SDS011;38263;52.920;6.238;2023-12-20T05:35:23;16.73;;;4.07;;
52322;SDS011;38263;52.920;6.238;2023-12-20T05:37:49;19.58;;;4.22;;
52322;SDS011;38263;52.920;6.238;2023-12-20T05:40:15;26.63;;;5.38;;
52322;SDS011;38263;52.920;6.238;2023-12-20T05:42:41;23.67;;;5.30;;
52322;SDS011;38263;52.920;6.238;2023-12-20T05:45:08;29.55;;;5.25;;
52322;SDS011;38263;52.920;6.238;2023-12-20T05:47:35;26.95;;;4.63;;
52322;SDS011;38263;52.920;6.238;2023-12-20T05:50:01;20.80;;;4.57;;
52322;SDS011;38263;52.920;6.238;2023-12-20T05:52:29;20.20;;;4.55;;
52322;SDS011;38263;52.920;6.238;2023-12-20T05:54:54;27.70;;;4.15;;
52322;SDS011;38263;52.920;6.238;2023-12-20T05:57:22;19.90;;;4.25;;
52322;SDS011;38263;52.920;6.238;2023-12-20T05:59:48;20.80;;;4.43;;
52322;SDS011;38263;52.920;6.238;2023-12-20T06:02:14;26.10;;;5.03;;
52322;SDS011;38263;52.920;6.238;2023-12-20T06:04:41;28.50;;;4.85;;
52322;SDS011;38263;52.920;6.238;2023-12-20T06:07:08;19.23;;;3.95;;
52322;SDS011;38263;52.920;6.238;2023-12-20T06:09:37;22.00;;;5.20;;
52322;SDS011;38263;52.920;6.238;2023-12-20T06:12:03;21.88;;;5.47;;
52322;SDS011;38263;52.920;6.238;2023-12-20T06:14:29;25.08;;;4.03;;
52322;SDS011;38263;52.920;6.238;2023-12-20T06:16:56;26.85;;;4.70;;
52322;SDS011;38263;52.920;6.238;2023-12-20T06:19:22;26.30;;;4.22;;
52322;SDS011;38263;52.920;6.238;2023-12-20T06:21:48;17.70;;;3.50;;
52322;SDS011;38263;52.920;6.238;2023-12-20T06:24:14;20.88;;;3.95;;
52322;SDS011;38263;52.920;6.238;2023-12-20T06:26:40;16.83;;;3.97;;
52322;SDS011;38263;52.920;6.238;2023-12-20T06:29:06;22.95;;;5.38;;
52322;SDS011;38263;52.920;6.238;2023-12-20T06:31:32;24.52;;;5.00;;
52322;SDS011;38263;52.920;6.238;2023-12-20T06:33:58;14.90;;;4.40;;
52322;SDS011;38263;52.920;6.238;2023-12-20T06:36:25;28.55;;;4.47;;
52322;SDS011;38263;52.920;6.238;2023-12-20T06:38:51;17.58;;;4.55;;
52322;SDS011;38263;52.920;6.238;2023-12-20T06:41:17;21.15;;;3.95;;
52322;SDS011;38263;52.920;6.238;2023-12-20T06:43:43;24.55;;;5.15;;
52322;SDS011;38263;52.920;6.238;2023-12-20T06:46:09;21.77;;;4.32;;
52322;SDS011;38263;52.920;6.238;2023-12-20T06:48:36;18.83;;;3.55;;
52322;SDS011;38263;52.920;6.238;2023-12-20T06:51:02;19.35;;;4.57;;
52322;SDS011;38263;52.920;6.238;2023-12-20T06:53:28;17.20;;;3.78;;
52322;SDS011;38263;52.920;6.238;2023-12-20T06:55:54;22.95;;;4.07;;
52322;SDS011;38263;52.920;6.238;2023-12-20T06:58:23;29.10;;;4.45;;
52322;SDS011;38263;52.920;6.238;2023-12-20T07:00:50;30.13;;;4.95;;
52322;SDS011;38263;52.920;6.238;2023-12-20T07:03:16;28.27;;;5.05;;
52322;SDS011;38263;52.920;6.238;2023-12-20T07:05:43;20.38;;;5.07;;
52322;SDS011;38263;52.920;6.238;2023-12-20T07:08:09;24.45;;;4.68;;
52322;SDS011;38263;52.920;6.238;2023-12-20T07:10:36;26.98;;;5.10;;
52322;SDS011;38263;52.920;6.238;2023-12-20T07:13:02;19.80;;;4.95;;
52322;SDS011;38263;52.920;6.238;2023-12-20T07:15:28;24.20;;;4.88;;
52322;SDS011;38263;52.920;6.238;2023-12-20T07:17:54;22.60;;;4.38;;
52322;SDS011;38263;52.920;6.238;2023-12-20T07:20:20;20.88;;;4.00;;
52322;SDS011;38263;52.920;6.238;2023-12-20T07:22:46;24.38;;;3.92;;
52322;SDS011;38263;52.920;6.238;2023-12-20T07:25:13;29.08;;;4.35;;
52322;SDS011;38263;52.920;6.238;2023-12-20T07:27:39;25.38;;;4.30;;
52322;SDS011;38263;52.920;6.238;2023-12-20T07:30:05;23.23;;;4.90;;
52322;SDS011;38263;52.920;6.238;2023-12-20T07:32:32;24.02;;;4.85;;
52322;SDS011;38263;52.920;6.238;2023-12-20T07:34:58;25.85;;;4.35;;
52322;SDS011;38263;52.920;6.238;2023-12-20T07:37:24;31.92;;;5.00;;
52322;SDS011;38263;52.920;6.238;2023-12-20T07:39:50;22.13;;;3.70;;
52322;SDS011;38263;52.920;6.238;2023-12-20T07:42:16;27.55;;;5.28;;
52322;SDS011;38263;52.920;6.238;2023-12-20T07:44:41;26.00;;;4.75;;
52322;SDS011;38263;52.920;6.238;2023-12-20T07:47:08;29.45;;;5.80;;
52322;SDS011;38263;52.920;6.238;2023-12-20T07:49:34;19.65;;;4.45;;
52322;SDS011;38263;52.920;6.238;2023-12-20T07:52:00;16.73;;;4.13;;
52322;SDS011;38263;52.920;6.238;2023-12-20T07:54:26;24.00;;;5.00;;
52322;SDS011;38263;52.920;6.238;2023-12-20T07:56:52;14.45;;;4.35;;
52322;SDS011;38263;52.920;6.238;2023-12-20T07:59:18;19.13;;;5.43;;
52322;SDS011;38263;52.920;6.238;2023-12-20T08:01:43;28.60;;;4.32;;
52322;SDS011;38263;52.920;6.238;2023-12-20T08:04:09;25.50;;;5.03;;
52322;SDS011;38263;52.920;6.238;2023-12-20T08:06:35;27.50;;;4.57;;
52322;SDS011;38263;52.920;6.238;2023-12-20T08:09:01;30.77;;;5.90;;
52322;SDS011;38263;52.920;6.238;2023-12-20T08:11:28;27.25;;;5.00;;
52322;SDS011;38263;52.920;6.238;2023-12-20T08:13:54;19.10;;;4.72;;
52322;SDS011;38263;52.920;6.238;2023-12-20T08:16:20;15.65;;;3.75;;
52322;SDS011;38263;52.920;6.238;2023-12-20T08:18:47;14.63;;;3.78;;
52322;SDS011;38263;52.920;6.238;2023-12-20T08:21:13;21.83;;;4.43;;
52322;SDS011;38263;52.920;6.238;2023-12-20T08:23:39;29.45;;;5.53;;
52322;SDS011;38263;52.920;6.238;2023-12-20T08:26:05;26.00;;;4.90;;
52322;SDS011;38263;52.920;6.238;2023-12-20T08:28:31;21.77;;;4.57;;
52322;SDS011;38263;52.920;6.238;2023-12-20T08:30:58;27.52;;;4.72;;
52322;SDS011;38263;52.920;6.238;2023-12-20T08:33:24;19.45;;;3.88;;
52322;SDS011;38263;52.920;6.238;2023-12-20T08:35:49;22.80;;;4.10;;
52322;SDS011;38263;52.920;6.238;2023-12-20T08:38:16;26.55;;;4.85;;
52322;SDS011;38263;52.920;6.238;2023-12-20T08:40:42;20.92;;;4.38;;
52322;SDS011;38263;52.920;6.238;2023-12-20T08:43:08;22.38;;;4.40;;
52322;SDS011;38263;52.920;6.238;2023-12-20T08:45:34;22.35;;;4.20;;
52322;SDS011;38263;52.920;6.238;2023-12-20T08:48:00;22.05;;;4.05;;
52322;SDS011;38263;52.920;6.238;2023-12-20T08:50:26;23.83;;;4.05;;
52322;SDS011;38263;52.920;6.238;2023-12-20T08:52:52;19.33;;;4.65;;
52322;SDS011;38263;52.920;6.238;2023-12-20T08:55:19;12.60;;;3.42;;
52322;SDS011;38263;52.920;6.238;2023-12-20T08:57:45;19.55;;;3.88;;
52322;SDS011;38263;52.920;6.238;2023-12-20T09:00:11;22.95;;;4.18;;
52322;SDS011;38263;52.920;6.238;2023-12-20T09:02:37;21.70;;;4.15;;
52322;SDS011;38263;52.920;6.238;2023-12-20T09:05:04;19.88;;;5.68;;
52322;SDS011;38263;52.920;6.238;2023-12-20T09:07:30;18.58;;;4.63;;
52322;SDS011;38263;52.920;6.238;2023-12-20T09:09:57;19.25;;;4.72;;
52322;SDS011;38263;52.920;6.238;2023-12-20T09:12:23;17.40;;;3.53;;
52322;SDS011;38263;52.920;6.238;2023-12-20T09:14:49;17.25;;;3.65;;
52322;SDS011;38263;52.920;6.238;2023-12-20T09:17:16;25.75;;;4.88;;
52322;SDS011;38263;52.920;6.238;2023-12-20T09:19:42;13.52;;;3.30;;
52322;SDS011;38263;52.920;6.238;2023-12-20T09:22:09;24.40;;;4.75;;
52322;SDS011;38263;52.920;6.238;2023-12-20T09:24:35;13.77;;;2.88;;
52322;SDS011;38263;52.920;6.238;2023-12-20T09:27:01;16.88;;;3.53;;
52322;SDS011;38263;52.920;6.238;2023-12-20T09:29:27;17.45;;;4.82;;
52322;SDS011;38263;52.920;6.238;2023-12-20T09:31:53;13.90;;;2.83;;
52322;SDS011;38263;52.920;6.238;2023-12-20T09:34:19;3.17;;;1.65;;
52322;SDS011;38263;52.920;6.238;2023-12-20T09:36:46;9.10;;;2.28;;
52322;SDS011;38263;52.920;6.238;2023-12-20T09:39:16;5.95;;;1.70;;
52322;SDS011;38263;52.920;6.238;2023-12-20T09:42:07;7.68;;;1.58;;
52322;SDS011;38263;52.920;6.238;2023-12-20T09:44:33;7.82;;;2.10;;
52322;SDS011;38263;52.920;6.238;2023-12-20T09:47:01;6.90;;;2.55;;
52322;SDS011;38263;52.920;6.238;2023-12-20T09:49:28;7.65;;;2.17;;
52322;SDS011;38263;52.920;6.238;2023-12-20T09:51:54;8.77;;;2.33;;
52322;SDS011;38263;52.920;6.238;2023-12-20T09:54:21;8.23;;;1.65;;
52322;SDS011;38263;52.920;6.238;2023-12-20T09:56:47;5.50;;;1.05;;
52322;SDS011;38263;52.920;6.238;2023-12-20T09:59:14;9.35;;;3.20;;
52322;SDS011;38263;52.920;6.238;2023-12-20T10:01:40;9.80;;;1.73;;
52322;SDS011;38263;52.920;6.238;2023-12-20T10:04:07;9.85;;;2.40;;
52322;SDS011;38263;52.920;6.238;2023-12-20T10:06:43;19.00;;;2.72;;
52322;SDS011;38263;52.920;6.238;2023-12-20T10:09:10;10.43;;;2.30;;
52322;SDS011;38263;52.920;6.238;2023-12-20T10:11:37;5.78;;;1.92;;
52322;SDS011;38263;52.920;6.238;2023-12-20T10:14:03;10.85;;;2.13;;
52322;SDS011;38263;52.920;6.238;2023-12-20T10:16:30;18.80;;;3.20;;
52322;SDS011;38263;52.920;6.238;2023-12-20T10:18:56;13.75;;;2.08;;
52322;SDS011;38263;52.920;6.238;2023-12-20T10:21:22;6.72;;;2.05;;
52322;SDS011;38263;52.920;6.238;2023-12-20T10:23:49;8.13;;;1.98;;
52322;SDS011;38263;52.920;6.238;2023-12-20T10:26:22;8.65;;;2.25;;
52322;SDS011;38263;52.920;6.238;2023-12-20T10:28:55;11.40;;;2.00;;
52322;SDS011;38263;52.920;6.238;2023-12-20T10:31:26;13.25;;;2.17;;
52322;SDS011;38263;52.920;6.238;2023-12-20T10:33:53;11.13;;;2.33;;
52322;SDS011;38263;52.920;6.238;2023-12-20T10:36:19;12.70;;;3.80;;
52322;SDS011;38263;52.920;6.238;2023-12-20T10:38:46;10.32;;;2.50;;
52322;SDS011;38263;52.920;6.238;2023-12-20T10:41:14;11.10;;;1.90;;
52322;SDS011;38263;52.920;6.238;2023-12-20T10:43:45;7.82;;;2.20;;
52322;SDS011;38263;52.920;6.238;2023-12-20T10:46:11;10.45;;;2.45;;
52322;SDS011;38263;52.920;6.238;2023-12-20T10:48:37;11.68;;;2.15;;
52322;SDS011;38263;52.920;6.238;2023-12-20T10:51:05;8.07;;;2.00;;
52322;SDS011;38263;52.920;6.238;2023-12-20T10:53:31;9.18;;;2.20;;
52322;SDS011;38263;52.920;6.238;2023-12-20T10:55:57;9.15;;;2.63;;
52322;SDS011;38263;52.920;6.238;2023-12-20T10:58:25;9.63;;;2.30;;
52322;SDS011;38263;52.920;6.238;2023-12-20T11:00:54;9.10;;;2.67;;
52322;SDS011;38263;52.920;6.238;2023-12-20T11:03:22;8.20;;;2.33;;
52322;SDS011;38263;52.920;6.238;2023-12-20T11:05:54;12.32;;;2.25;;
52322;SDS011;38263;52.920;6.238;2023-12-20T11:08:28;8.55;;;1.92;;
52322;SDS011;38263;52.920;6.238;2023-12-20T11:13:28;8.30;;;2.22;;
52322;SDS011;38263;52.920;6.238;2023-12-20T11:15:56;9.70;;;3.10;;
52322;SDS011;38263;52.920;6.238;2023-12-20T11:18:28;11.15;;;2.63;;
52322;SDS011;38263;52.920;6.238;2023-12-20T11:20:54;7.88;;;2.22;;
52322;SDS011;38263;52.920;6.238;2023-12-20T11:23:20;9.43;;;2.17;;
52322;SDS011;38263;52.920;6.238;2023-12-20T11:25:54;10.18;;;2.30;;
52322;SDS011;38263;52.920;6.238;2023-12-20T11:28:22;14.18;;;2.33;;
52322;SDS011;38263;52.920;6.238;2023-12-20T11:30:50;12.68;;;2.08;;
52322;SDS011;38263;52.920;6.238;2023-12-20T11:33:16;10.77;;;1.85;;
52322;SDS011;38263;52.920;6.238;2023-12-20T11:35:43;7.15;;;2.33;;
52322;SDS011;38263;52.920;6.238;2023-12-20T11:38:10;9.25;;;2.20;;
52322;SDS011;38263;52.920;6.238;2023-12-20T11:40:37;8.32;;;1.95;;
52322;SDS011;38263;52.920;6.238;2023-12-20T11:43:03;11.27;;;2.20;;
52322;SDS011;38263;52.920;6.238;2023-12-20T11:45:32;10.27;;;2.88;;
52322;SDS011;38263;52.920;6.238;2023-12-20T11:48:00;9.50;;;2.65;;
52322;SDS011;38263;52.920;6.238;2023-12-20T11:50:27;11.95;;;2.80;;
52322;SDS011;38263;52.920;6.238;2023-12-20T11:52:54;11.27;;;2.50;;
52322;SDS011;38263;52.920;6.238;2023-12-20T11:55:21;13.32;;;2.35;;
52322;SDS011;38263;52.920;6.238;2023-12-20T11:57:47;13.35;;;2.47;;
52322;SDS011;38263;52.920;6.238;2023-12-20T12:00:13;10.15;;;2.50;;
52322;SDS011;38263;52.920;6.238;2023-12-20T12:02:40;9.02;;;1.90;;
52322;SDS011;38263;52.920;6.238;2023-12-20T12:05:06;9.13;;;3.00;;
52322;SDS011;38263;52.920;6.238;2023-12-20T12:07:33;6.57;;;1.75;;
52322;SDS011;38263;52.920;6.238;2023-12-20T12:09:59;7.03;;;2.03;;
52322;SDS011;38263;52.920;6.238;2023-12-20T12:12:26;10.30;;;2.13;;
52322;SDS011;38263;52.920;6.238;2023-12-20T12:14:52;16.95;;;2.97;;
52322;SDS011;38263;52.920;6.238;2023-12-20T12:17:19;13.93;;;2.17;;
52322;SDS011;38263;52.920;6.238;2023-12-20T12:19:45;8.23;;;2.67;;
52322;SDS011;38263;52.920;6.238;2023-12-20T12:22:12;9.88;;;2.22;;
52322;SDS011;38263;52.920;6.238;2023-12-20T12:24:46;16.52;;;2.47;;
52322;SDS011;38263;52.920;6.238;2023-12-20T12:27:13;11.07;;;2.00;;
52322;SDS011;38263;52.920;6.238;2023-12-20T12:29:39;8.25;;;2.90;;
52322;SDS011;38263;52.920;6.238;2023-12-20T12:32:08;18.23;;;3.03;;
52322;SDS011;38263;52.920;6.238;2023-12-20T12:34:35;9.32;;;2.47;;
52322;SDS011;38263;52.920;6.238;2023-12-20T12:37:01;10.05;;;1.90;;
52322;SDS011;38263;52.920;6.238;2023-12-20T12:39:27;10.98;;;2.55;;
52322;SDS011;38263;52.920;6.238;2023-12-20T12:41:54;13.18;;;2.25;;
52322;SDS011;38263;52.920;6.238;2023-12-20T12:44:21;12.77;;;2.65;;
52322;SDS011;38263;52.920;6.238;2023-12-20T12:46:48;9.32;;;2.50;;
52322;SDS011;38263;52.920;6.238;2023-12-20T12:49:19;12.02;;;2.05;;
52322;SDS011;38263;52.920;6.238;2023-12-20T12:51:46;14.57;;;2.75;;
52322;SDS011;38263;52.920;6.238;2023-12-20T12:54:12;8.77;;;2.80;;
52322;SDS011;38263;52.920;6.238;2023-12-20T12:56:40;8.48;;;2.50;;
52322;SDS011;38263;52.920;6.238;2023-12-20T12:59:06;11.85;;;2.20;;
52322;SDS011;38263;52.920;6.238;2023-12-20T13:01:32;13.00;;;2.17;;
52322;SDS011;38263;52.920;6.238;2023-12-20T13:03:58;13.02;;;2.50;;
52322;SDS011;38263;52.920;6.238;2023-12-20T13:06:26;8.30;;;2.72;;
52322;SDS011;38263;52.920;6.238;2023-12-20T13:08:52;9.77;;;2.47;;
52322;SDS011;38263;52.920;6.238;2023-12-20T13:11:18;15.98;;;3.13;;
52322;SDS011;38263;52.920;6.238;2023-12-20T13:13:44;8.10;;;2.50;;
52322;SDS011;38263;52.920;6.238;2023-12-20T13:16:10;13.70;;;2.50;;
52322;SDS011;38263;52.920;6.238;2023-12-20T13:18:36;12.25;;;3.60;;
52322;SDS011;38263;52.920;6.238;2023-12-20T13:21:02;8.43;;;2.00;;
52322;SDS011;38263;52.920;6.238;2023-12-20T13:23:28;10.45;;;2.67;;
52322;SDS011;38263;52.920;6.238;2023-12-20T13:25:54;6.82;;;2.50;;
52322;SDS011;38263;52.920;6.238;2023-12-20T13:28:20;7.82;;;2.25;;
52322;SDS011;38263;52.920;6.238;2023-12-20T13:30:46;6.93;;;1.95;;
52322;SDS011;38263;52.920;6.238;2023-12-20T13:33:12;10.65;;;2.38;;
52322;SDS011;38263;52.920;6.238;2023-12-20T13:35:38;8.05;;;2.40;;
52322;SDS011;38263;52.920;6.238;2023-12-20T13:38:04;11.98;;;2.03;;
52322;SDS011;38263;52.920;6.238;2023-12-20T13:40:30;7.65;;;1.90;;
52322;SDS011;38263;52.920;6.238;2023-12-20T13:42:56;11.18;;;2.30;;
52322;SDS011;38263;52.920;6.238;2023-12-20T13:45:22;5.78;;;1.55;;
52322;SDS011;38263;52.920;6.238;2023-12-20T13:47:50;6.07;;;1.80;;
52322;SDS011;38263;52.920;6.238;2023-12-20T13:50:16;9.70;;;2.03;;
52322;SDS011;38263;52.920;6.238;2023-12-20T13:52:42;7.88;;;1.83;;
52322;SDS011;38263;52.920;6.238;2023-12-20T13:55:07;7.93;;;2.10;;
52322;SDS011;38263;52.920;6.238;2023-12-20T13:57:33;5.70;;;2.38;;
52322;SDS011;38263;52.920;6.238;2023-12-20T14:00:02;7.88;;;2.03;;
52322;SDS011;38263;52.920;6.238;2023-12-20T14:02:28;9.77;;;2.70;;
52322;SDS011;38263;52.920;6.238;2023-12-20T14:04:54;12.05;;;2.25;;
52322;SDS011;38263;52.920;6.238;2023-12-20T14:07:20;5.28;;;1.92;;
52322;SDS011;38263;52.920;6.238;2023-12-20T14:09:46;10.82;;;2.53;;
52322;SDS011;38263;52.920;6.238;2023-12-20T14:12:13;4.60;;;1.80;;
52322;SDS011;38263;52.920;6.238;2023-12-20T14:14:39;7.28;;;2.10;;
52322;SDS011;38263;52.920;6.238;2023-12-20T14:17:05;9.43;;;1.95;;
52322;SDS011;38263;52.920;6.238;2023-12-20T14:19:32;7.45;;;1.98;;
52322;SDS011;38263;52.920;6.238;2023-12-20T14:21:58;6.60;;;2.08;;
52322;SDS011;38263;52.920;6.238;2023-12-20T14:24:28;5.45;;;1.95;;
52322;SDS011;38263;52.920;6.238;2023-12-20T14:26:54;7.45;;;1.95;;
52322;SDS011;38263;52.920;6.238;2023-12-20T14:29:20;7.80;;;1.67;;
52322;SDS011;38263;52.920;6.238;2023-12-20T14:31:46;8.45;;;2.00;;
52322;SDS011;38263;52.920;6.238;2023-12-20T14:34:14;6.72;;;1.65;;
52322;SDS011;38263;52.920;6.238;2023-12-20T14:36:40;6.13;;;1.95;;